Main page
METAR-TAF:

METAR-TAF

Airports :

Sussex Airport

Sussex, New Jersey, United States

latitude: 41-12-01N, longitude: 074-37-23W, elevation: 420 ft

Current weather observation

The report was made 19 minutes ago, at 14:53 UTC
Calm wind
Temperature 36°F
Humidity 64%
Pressure 30.37 in. Hg
Visibility: 9 miles
Clear sky

METAR: KFWN 241453Z AUTO 00000KT 9SM CLR 02/M04 A3037 RMK AO2 SLP288 T00171039 51005

Time: 10:12 (15:12 UTC)


TAF: missing

Weather observations and forecasts of more than 4000 airports (METAR and TAF reports).

The available stations are represented by yellow and red dots on the map.

Hover mouse over dot to see the name of the station.

Then click to see weather observations and forecasts.

To change the map : click on the green buttons with a black cross to zoom in, on the green button with a dash to zoom out, or on the green arrows for adjacent maps.


METAR-TAF: